createdAt,value
2023-06-29T00:01:53.456Z,50.38
2023-06-29T00:04:23.131Z,50.19
2023-06-29T00:06:54.296Z,50.12
2023-06-29T00:09:24.850Z,50.26
2023-06-29T00:11:53.666Z,50.44
2023-06-29T00:14:22.499Z,50.66
2023-06-29T00:16:52.058Z,50.59
2023-06-29T00:19:22.231Z,50.58
2023-06-29T00:21:52.528Z,50.01
2023-06-29T00:24:21.458Z,50.44
2023-06-29T00:26:50.458Z,50.15
2023-06-29T00:29:19.906Z,50.31
2023-06-29T00:31:48.828Z,51.04
2023-06-29T00:34:20.566Z,50.91
2023-06-29T00:36:50.558Z,51.54
2023-06-29T00:39:20.877Z,51.70
2023-06-29T00:41:54.914Z,51.88
2023-06-29T00:44:24.443Z,52.34
2023-06-29T00:46:56.156Z,52.56
2023-06-29T00:49:26.573Z,52.56
2023-06-29T00:51:57.322Z,53.07
2023-06-29T00:54:29.039Z,53.05
2023-06-29T00:57:00.251Z,52.79
2023-06-29T00:59:29.061Z,52.52
2023-06-29T01:01:58.436Z,52.36
2023-06-29T01:04:27.592Z,52.07
2023-06-29T01:07:00.452Z,52.52
2023-06-29T01:09:31.313Z,52.77
2023-06-29T01:12:02.185Z,53.29
2023-06-29T01:14:33.403Z,53.68
2023-06-29T01:17:03.734Z,53.72
2023-06-29T01:19:35.206Z,53.95
2023-06-29T01:22:07.548Z,54.31
2023-06-29T01:24:41.272Z,54.48
2023-06-29T01:27:13.970Z,54.72
2023-06-29T01:29:43.738Z,55.17
2023-06-29T01:32:13.075Z,55.15
2023-06-29T01:34:42.130Z,55.30
2023-06-29T01:37:14.374Z,55.03
2023-06-29T01:39:56.842Z,55.04
2023-06-29T01:42:27.454Z,55.23
2023-06-29T01:44:56.824Z,55.32
2023-06-29T01:47:26.985Z,55.67
2023-06-29T01:49:56.010Z,55.76
2023-06-29T01:52:25.300Z,55.91
2023-06-29T01:54:57.434Z,55.92
2023-06-29T01:57:29.470Z,56.14
2023-06-29T01:59:59.546Z,56.45
2023-06-29T02:02:28.549Z,56.66
2023-06-29T02:05:01.104Z,56.52
2023-06-29T02:07:29.964Z,55.94
2023-06-29T02:10:00.456Z,55.66
2023-06-29T02:12:29.323Z,56.06
2023-06-29T02:14:58.265Z,56.14
2023-06-29T02:17:29.123Z,56.28
2023-06-29T02:19:58.024Z,56.58
2023-06-29T02:22:26.820Z,56.70
2023-06-29T02:24:55.703Z,56.75
2023-06-29T02:27:26.067Z,56.80
2023-06-29T02:29:54.973Z,56.91
2023-06-29T02:32:25.745Z,57.26
2023-06-29T02:34:54.728Z,57.26
2023-06-29T02:37:24.454Z,57.55
2023-06-29T02:39:53.582Z,57.74
2023-06-29T02:42:22.400Z,57.74
2023-06-29T02:44:52.750Z,57.97
2023-06-29T02:47:21.636Z,58.10
2023-06-29T02:49:50.675Z,58.56
2023-06-29T02:52:22.038Z,58.32
2023-06-29T02:54:51.982Z,58.53
2023-06-29T02:57:20.957Z,58.88
2023-06-29T02:59:49.867Z,58.75
2023-06-29T03:02:20.241Z,59.03
2023-06-29T03:04:49.102Z,59.30
2023-06-29T03:07:18.074Z,59.50
2023-06-29T03:09:49.023Z,59.84
2023-06-29T03:12:17.837Z,59.96
2023-06-29T03:14:46.653Z,60.15
2023-06-29T03:17:15.945Z,60.05
2023-06-29T03:19:46.368Z,60.09
2023-06-29T03:22:15.276Z,60.35
2023-06-29T03:24:44.061Z,60.42
2023-06-29T03:27:13.373Z,60.32
2023-06-29T03:29:42.140Z,60.64
2023-06-29T03:32:11.513Z,60.81
2023-06-29T03:34:40.326Z,60.73
2023-06-29T03:37:11.506Z,60.50
2023-06-29T03:39:40.388Z,60.78
2023-06-29T03:42:09.340Z,60.41
2023-06-29T03:44:40.770Z,60.23
2023-06-29T03:47:09.805Z,60.45
2023-06-29T03:49:38.553Z,60.66
2023-06-29T03:52:08.637Z,60.87
2023-06-29T03:54:38.867Z,61.20
2023-06-29T03:57:08.778Z,61.19
2023-06-29T03:59:37.694Z,61.39
2023-06-29T04:02:07.108Z,61.29
2023-06-29T04:04:36.009Z,60.97
2023-06-29T04:07:05.079Z,61.22
2023-06-29T04:09:34.259Z,61.41
2023-06-29T04:12:04.493Z,61.47
2023-06-29T04:14:33.437Z,61.43
2023-06-29T04:17:02.255Z,61.70
2023-06-29T04:19:31.861Z,62.05
2023-06-29T04:22:00.700Z,62.00
2023-06-29T04:24:29.537Z,62.12
2023-06-29T04:26:58.332Z,62.02
2023-06-29T04:29:29.647Z,61.58
2023-06-29T04:31:59.460Z,61.93
2023-06-29T04:34:29.316Z,62.34
2023-06-29T04:36:58.199Z,62.44
2023-06-29T04:39:27.131Z,62.08
2023-06-29T04:42:02.970Z,61.99
2023-06-29T04:44:33.675Z,61.86
2023-06-29T04:47:03.267Z,61.95
2023-06-29T04:49:38.790Z,61.52
2023-06-29T04:52:11.380Z,61.50
2023-06-29T04:54:40.289Z,61.20
2023-06-29T04:57:09.162Z,61.12
2023-06-29T04:59:39.461Z,61.05
2023-06-29T05:02:09.579Z,61.02
2023-06-29T05:04:38.680Z,61.16
2023-06-29T05:07:07.621Z,61.12
2023-06-29T05:09:37.496Z,61.13
2023-06-29T05:12:07.097Z,60.95
2023-06-29T05:14:35.985Z,61.16
2023-06-29T05:17:08.653Z,61.08
2023-06-29T05:19:37.750Z,61.29
2023-06-29T05:22:07.042Z,61.16
2023-06-29T05:24:36.003Z,61.37
2023-06-29T05:27:04.806Z,61.25
2023-06-29T05:29:33.638Z,61.17
2023-06-29T05:32:02.592Z,61.07
2023-06-29T05:34:32.977Z,60.55
2023-06-29T05:37:01.871Z,60.60
2023-06-29T05:39:30.770Z,60.42
2023-06-29T05:41:59.619Z,60.17
2023-06-29T05:44:28.377Z,59.98
2023-06-29T05:46:57.301Z,59.87
2023-06-29T05:49:26.123Z,59.34
2023-06-29T05:51:56.365Z,59.13
2023-06-29T05:54:25.267Z,58.78
2023-06-29T05:56:55.108Z,58.10
2023-06-29T05:59:24.140Z,57.61
2023-06-29T06:01:53.240Z,57.12
2023-06-29T06:04:22.064Z,56.51
2023-06-29T06:06:51.141Z,55.70
2023-06-29T06:09:21.508Z,55.60
2023-06-29T06:11:50.445Z,54.92
2023-06-29T06:14:19.234Z,54.83
2023-06-29T06:16:48.194Z,54.50
2023-06-29T06:19:17.287Z,53.08
2023-06-29T06:21:46.174Z,52.45
2023-06-29T06:24:15.058Z,51.59
2023-06-29T06:26:45.372Z,51.23
2023-06-29T06:29:14.187Z,50.27
2023-06-29T06:31:43.084Z,49.97
2023-06-29T06:34:12.100Z,49.43
2023-06-29T06:36:41.519Z,48.48
2023-06-29T06:39:11.384Z,47.84
2023-06-29T06:41:40.295Z,47.19
2023-06-29T06:44:10.761Z,46.77
2023-06-29T06:46:39.753Z,46.38
2023-06-29T06:49:08.587Z,45.96
2023-06-29T06:51:37.399Z,45.12
2023-06-29T06:54:06.283Z,45.02
2023-06-29T06:56:35.231Z,44.16
2023-06-29T06:59:04.219Z,44.29
2023-06-29T07:01:35.054Z,43.57
2023-06-29T07:04:04.629Z,43.29
2023-06-29T07:06:35.073Z,42.93
2023-06-29T07:09:05.117Z,42.88
2023-06-29T07:11:33.967Z,42.22
2023-06-29T07:14:03.236Z,42.34
2023-06-29T07:16:33.569Z,42.38
2023-06-29T07:21:39.531Z,42.04
2023-06-29T07:24:09.395Z,42.13
2023-06-29T07:26:38.873Z,41.79
2023-06-29T07:29:08.456Z,41.91
2023-06-29T07:31:39.841Z,42.09
2023-06-29T07:34:09.001Z,40.68
2023-06-29T07:36:39.439Z,41.07
2023-06-29T07:39:08.569Z,41.37
2023-06-29T07:41:37.998Z,40.86
2023-06-29T07:44:08.549Z,40.97
2023-06-29T07:46:38.973Z,41.24
2023-06-29T07:49:08.435Z,41.08
2023-06-29T07:51:38.428Z,40.24
2023-06-29T07:54:07.963Z,40.79
2023-06-29T07:59:09.215Z,40.63
2023-06-29T08:01:39.542Z,40.26
2023-06-29T08:04:09.456Z,39.83
2023-06-29T08:06:52.013Z,40.13
2023-06-29T08:09:22.325Z,40.73
2023-06-29T08:11:51.797Z,39.93
2023-06-29T08:14:20.625Z,39.33
2023-06-29T08:16:50.891Z,39.84
2023-06-29T08:19:19.908Z,38.72
2023-06-29T08:21:49.521Z,38.78
2023-06-29T08:24:18.517Z,38.88
2023-06-29T08:26:47.445Z,39.15
2023-06-29T08:29:16.309Z,37.51
2023-06-29T08:31:45.383Z,37.34
2023-06-29T08:34:15.814Z,37.04
2023-06-29T08:36:44.701Z,36.18
2023-06-29T08:39:13.492Z,36.22
2023-06-29T08:41:42.914Z,35.71
2023-06-29T08:44:11.865Z,36.51
2023-06-29T08:46:41.341Z,36.15
2023-06-29T08:49:10.822Z,35.08
2023-06-29T08:51:43.733Z,36.14
2023-06-29T08:54:14.191Z,34.96
2023-06-29T08:56:43.108Z,36.03
2023-06-29T08:59:12.468Z,36.49
2023-06-29T09:01:42.288Z,35.77
2023-06-29T09:04:11.544Z,35.40
2023-06-29T09:06:43.242Z,35.51
2023-06-29T09:09:12.221Z,35.50
2023-06-29T09:11:43.915Z,35.28
2023-06-29T09:14:13.089Z,34.98
2023-06-29T09:16:52.007Z,34.71
2023-06-29T09:19:21.062Z,34.81
2023-06-29T09:21:51.642Z,34.49
2023-06-29T09:24:20.920Z,34.79
2023-06-29T09:26:51.901Z,34.25
2023-06-29T09:29:20.823Z,34.53
2023-06-29T09:31:59.396Z,34.63
2023-06-29T09:34:29.857Z,34.51
2023-06-29T09:37:00.275Z,34.10
2023-06-29T09:39:29.130Z,33.38
2023-06-29T09:41:59.237Z,33.17
2023-06-29T09:44:29.168Z,34.07
2023-06-29T09:49:49.462Z,33.26
2023-06-29T09:52:21.016Z,33.70
2023-06-29T09:54:51.054Z,33.83
2023-06-29T09:57:21.420Z,33.18
2023-06-29T09:59:51.126Z,33.74
2023-06-29T10:02:20.595Z,32.54
2023-06-29T10:04:51.043Z,32.91
2023-06-29T10:07:23.899Z,32.81
2023-06-29T10:09:53.477Z,33.10
2023-06-29T10:12:28.784Z,32.18
2023-06-29T10:15:01.580Z,32.90
2023-06-29T10:17:36.625Z,32.59
2023-06-29T10:20:08.090Z,31.67
2023-06-29T10:22:41.451Z,31.08
2023-06-29T10:25:15.385Z,31.78
2023-06-29T10:27:45.283Z,32.14
2023-06-29T10:30:20.160Z,31.70
2023-06-29T10:32:51.947Z,32.36
2023-06-29T10:35:20.789Z,31.88
2023-06-29T10:37:53.329Z,31.70
2023-06-29T10:40:26.240Z,31.77
2023-06-29T10:42:56.879Z,31.20
2023-06-29T10:45:35.534Z,31.74
2023-06-29T10:48:31.300Z,31.85
2023-06-29T10:51:09.630Z,30.53
2023-06-29T10:53:42.028Z,30.90
2023-06-29T10:56:31.181Z,31.33
2023-06-29T10:59:01.219Z,30.73
2023-06-29T11:01:30.864Z,31.06
2023-06-29T11:04:01.525Z,30.49
2023-06-29T11:06:37.031Z,30.63
2023-06-29T11:09:15.050Z,30.77
2023-06-29T11:11:46.473Z,30.55
2023-06-29T11:14:15.486Z,29.68
2023-06-29T11:16:44.453Z,29.01
2023-06-29T11:19:13.822Z,29.48
2023-06-29T11:21:43.223Z,29.71
2023-06-29T11:24:13.614Z,29.97
2023-06-29T11:26:42.632Z,29.55
2023-06-29T11:29:11.536Z,29.50
2023-06-29T11:31:40.831Z,29.58
2023-06-29T11:34:15.370Z,29.65
2023-06-29T11:39:34.709Z,30.48
2023-06-29T11:42:06.829Z,30.13
2023-06-29T11:44:36.072Z,30.28
2023-06-29T11:47:18.428Z,29.97
2023-06-29T11:49:55.722Z,29.63
2023-06-29T11:52:24.991Z,29.39
2023-06-29T11:54:55.308Z,29.90
2023-06-29T11:57:24.179Z,30.09
2023-06-29T11:59:53.087Z,30.19
2023-06-29T12:02:22.467Z,30.19
2023-06-29T12:04:58.894Z,30.33
2023-06-29T12:07:38.325Z,29.93
2023-06-29T12:10:11.289Z,30.69
2023-06-29T12:12:41.486Z,30.46
2023-06-29T12:15:16.755Z,30.17
2023-06-29T12:20:19.838Z,30.18
2023-06-29T12:22:50.948Z,30.22
2023-06-29T12:25:22.142Z,29.96
2023-06-29T12:27:52.581Z,29.72
2023-06-29T12:30:23.083Z,29.20
2023-06-29T12:32:53.112Z,29.64
2023-06-29T12:35:21.949Z,29.92
2023-06-29T12:37:50.857Z,29.78
2023-06-29T12:40:21.330Z,30.00
2023-06-29T12:42:50.246Z,30.39
2023-06-29T12:45:19.133Z,30.75
2023-06-29T12:47:48.180Z,30.61
2023-06-29T12:50:17.891Z,30.42
2023-06-29T12:52:48.324Z,30.70
2023-06-29T12:55:17.361Z,30.15
2023-06-29T12:57:47.648Z,29.96
2023-06-29T13:00:19.979Z,30.27
2023-06-29T13:02:49.576Z,29.77
2023-06-29T13:05:18.697Z,29.91
2023-06-29T13:07:47.570Z,29.88
2023-06-29T13:10:16.378Z,30.00
2023-06-29T13:12:46.625Z,30.22
2023-06-29T13:15:15.584Z,29.69
2023-06-29T13:17:45.363Z,30.45
2023-06-29T13:20:16.130Z,29.97
2023-06-29T13:22:45.236Z,29.86
2023-06-29T13:25:14.128Z,29.63
2023-06-29T13:27:45.198Z,29.95
2023-06-29T13:30:17.071Z,30.22
2023-06-29T13:32:46.167Z,30.42
2023-06-29T13:35:15.026Z,30.20
2023-06-29T13:37:43.906Z,29.59
2023-06-29T13:40:14.073Z,29.43
2023-06-29T13:42:43.149Z,29.76
2023-06-29T13:45:12.555Z,29.74
2023-06-29T13:47:45.144Z,29.59
2023-06-29T13:50:16.520Z,29.93
2023-06-29T13:52:48.488Z,29.99
2023-06-29T13:55:17.352Z,30.08
2023-06-29T13:57:46.195Z,29.74
2023-06-29T14:00:16.277Z,29.65
2023-06-29T14:02:46.725Z,29.94
2023-06-29T14:05:15.756Z,30.31
2023-06-29T14:07:44.639Z,29.96
2023-06-29T14:10:13.543Z,30.42
2023-06-29T14:12:42.436Z,30.31
2023-06-29T14:15:11.993Z,30.79
2023-06-29T14:17:41.103Z,30.29
2023-06-29T14:20:12.891Z,30.25
2023-06-29T14:22:42.726Z,30.38
2023-06-29T14:25:12.625Z,30.54
2023-06-29T14:27:41.552Z,30.20
2023-06-29T14:30:12.363Z,30.52
2023-06-29T14:32:41.504Z,30.38
2023-06-29T14:35:12.008Z,30.90
2023-06-29T14:37:41.364Z,30.51
2023-06-29T14:40:11.335Z,30.13
2023-06-29T14:42:41.617Z,30.27
2023-06-29T14:45:11.252Z,29.75
2023-06-29T14:47:40.283Z,29.96
2023-06-29T14:50:10.989Z,29.91
2023-06-29T14:52:41.808Z,30.04
2023-06-29T14:55:10.762Z,29.73
2023-06-29T14:57:39.614Z,29.35
2023-06-29T15:00:10.159Z,29.72
2023-06-29T15:02:40.275Z,29.26
2023-06-29T15:05:09.978Z,29.22
2023-06-29T15:07:38.847Z,29.26
2023-06-29T15:10:11.657Z,29.29
2023-06-29T15:12:40.554Z,29.11
2023-06-29T15:15:11.819Z,28.90
2023-06-29T15:17:43.565Z,29.12
2023-06-29T15:20:13.391Z,29.20
2023-06-29T15:22:42.300Z,28.81
2023-06-29T15:25:12.760Z,28.84
2023-06-29T15:27:41.760Z,28.98
2023-06-29T15:30:11.402Z,28.73
2023-06-29T15:32:40.317Z,28.86
2023-06-29T15:35:10.330Z,29.16
2023-06-29T15:37:39.158Z,29.18
2023-06-29T15:40:09.704Z,29.40
2023-06-29T15:42:40.145Z,29.48
2023-06-29T15:45:09.638Z,29.11
2023-06-29T15:47:38.518Z,29.30
2023-06-29T15:50:08.485Z,29.27
2023-06-29T15:52:37.844Z,29.88
2023-06-29T15:55:08.612Z,29.90
2023-06-29T15:57:37.495Z,29.76
2023-06-29T16:00:09.414Z,29.97
2023-06-29T16:02:40.812Z,30.10
2023-06-29T16:05:10.508Z,30.39
2023-06-29T16:07:39.442Z,30.50
2023-06-29T16:10:09.117Z,30.72
2023-06-29T16:12:38.122Z,30.94
2023-06-29T16:15:09.386Z,31.17
2023-06-29T16:17:38.435Z,30.96
2023-06-29T16:20:09.541Z,31.11
2023-06-29T16:22:38.584Z,30.77
2023-06-29T16:25:09.755Z,29.71
2023-06-29T16:27:38.697Z,29.73
2023-06-29T16:30:10.938Z,29.41
2023-06-29T16:32:40.411Z,29.28
2023-06-29T16:35:09.862Z,29.91
2023-06-29T16:37:38.820Z,30.09
2023-06-29T16:40:09.026Z,30.55
2023-06-29T16:42:38.302Z,30.57
2023-06-29T16:45:09.374Z,31.01
2023-06-29T16:47:38.810Z,31.36
2023-06-29T16:50:09.281Z,31.75
2023-06-29T16:52:38.294Z,30.98
2023-06-29T16:55:07.492Z,31.36
2023-06-29T16:57:36.393Z,31.35
2023-06-29T17:00:05.950Z,32.08
2023-06-29T17:02:36.635Z,32.94
2023-06-29T17:05:05.908Z,33.04
2023-06-29T17:07:36.941Z,32.90
2023-06-29T17:10:06.725Z,33.86
2023-06-29T17:12:35.606Z,33.81
2023-06-29T17:15:04.810Z,33.88
2023-06-29T17:17:33.952Z,34.87
2023-06-29T17:20:04.392Z,35.26
2023-06-29T17:22:33.355Z,35.61
2023-06-29T17:25:02.173Z,35.45
2023-06-29T17:27:30.938Z,35.73
2023-06-29T17:29:59.819Z,36.31
2023-06-29T17:32:28.786Z,36.60
2023-06-29T17:34:58.793Z,36.66
2023-06-29T17:37:30.121Z,37.19
2023-06-29T17:39:59.167Z,37.70
2023-06-29T17:42:28.952Z,38.63
2023-06-29T17:44:57.850Z,38.90
2023-06-29T17:47:26.649Z,39.41
2023-06-29T17:49:55.531Z,40.08
2023-06-29T17:52:24.286Z,40.23
2023-06-29T17:54:54.889Z,40.64
2023-06-29T17:57:23.778Z,41.01
2023-06-29T17:59:52.611Z,41.74
2023-06-29T18:02:22.562Z,41.92
2023-06-29T18:04:51.686Z,42.50
2023-06-29T18:07:20.661Z,42.79
2023-06-29T18:09:49.675Z,43.08
2023-06-29T18:12:20.276Z,43.27
2023-06-29T18:14:49.126Z,43.38
2023-06-29T18:17:19.934Z,43.78
2023-06-29T18:19:48.835Z,44.15
2023-06-29T18:22:17.620Z,44.40
2023-06-29T18:24:46.477Z,44.55
2023-06-29T18:27:15.346Z,44.91
2023-06-29T18:29:45.854Z,44.63
2023-06-29T18:32:14.749Z,45.09
2023-06-29T18:34:43.956Z,45.52
2023-06-29T18:37:12.886Z,45.89
2023-06-29T18:39:41.878Z,45.73
2023-06-29T18:42:11.629Z,45.55
2023-06-29T18:44:41.533Z,46.03
2023-06-29T18:47:15.201Z,45.92
2023-06-29T18:49:52.185Z,46.03
2023-06-29T18:52:22.543Z,46.41
2023-06-29T18:54:53.210Z,46.67
2023-06-29T18:57:22.191Z,47.18
2023-06-29T18:59:51.074Z,47.05
2023-06-29T19:02:21.522Z,47.09
2023-06-29T19:04:50.370Z,47.09
2023-06-29T19:07:19.376Z,47.83
2023-06-29T19:09:48.882Z,47.78
2023-06-29T19:12:17.741Z,47.98
2023-06-29T19:14:46.591Z,48.19
2023-06-29T19:17:15.623Z,48.40
2023-06-29T19:19:45.808Z,48.74
2023-06-29T19:22:14.619Z,48.69
2023-06-29T19:24:43.493Z,49.15
2023-06-29T19:27:12.329Z,49.21
2023-06-29T19:29:41.307Z,49.64
2023-06-29T19:32:11.840Z,49.93
2023-06-29T19:34:41.014Z,50.35
2023-06-29T19:37:12.313Z,50.87
2023-06-29T19:39:42.271Z,50.74
2023-06-29T19:42:11.210Z,50.99
2023-06-29T19:44:40.166Z,50.78
2023-06-29T19:47:09.232Z,50.94
2023-06-29T19:49:38.186Z,51.19
2023-06-29T19:52:07.625Z,50.79
2023-06-29T19:54:37.918Z,51.51
2023-06-29T19:57:08.715Z,51.53
2023-06-29T19:59:37.587Z,51.86
2023-06-29T20:02:07.158Z,51.59
2023-06-29T20:04:36.105Z,51.95
2023-06-29T20:07:05.391Z,51.38
2023-06-29T20:09:34.350Z,51.33
2023-06-29T20:12:04.870Z,51.54
2023-06-29T20:14:34.207Z,51.69
2023-06-29T20:17:03.090Z,51.18
2023-06-29T20:19:33.386Z,51.10
2023-06-29T20:22:02.178Z,51.08
2023-06-29T20:24:31.123Z,51.58
2023-06-29T20:26:59.915Z,51.71
2023-06-29T20:29:30.415Z,51.36
2023-06-29T20:31:59.379Z,50.82
2023-06-29T20:34:28.491Z,51.04
2023-06-29T20:36:57.362Z,50.98
2023-06-29T20:39:27.948Z,50.97
2023-06-29T20:41:56.746Z,50.80
2023-06-29T20:44:33.974Z,50.59
2023-06-29T20:47:05.429Z,50.33
2023-06-29T20:49:34.568Z,48.92
2023-06-29T20:52:03.924Z,49.65
2023-06-29T20:54:32.949Z,48.74
2023-06-29T20:57:03.720Z,48.89
2023-06-29T20:59:34.903Z,49.41
2023-06-29T21:02:06.343Z,49.87
2023-06-29T21:04:35.331Z,50.13
2023-06-29T21:07:04.314Z,49.43
2023-06-29T21:09:33.800Z,49.42
2023-06-29T21:12:03.014Z,49.30
2023-06-29T21:14:33.566Z,49.39
2023-06-29T21:17:02.704Z,49.42
2023-06-29T21:19:35.029Z,49.31
2023-06-29T21:22:04.615Z,50.01
2023-06-29T21:24:34.774Z,50.39
2023-06-29T21:27:04.043Z,51.13
2023-06-29T21:29:42.334Z,50.68
2023-06-29T21:32:13.439Z,50.74
2023-06-29T21:34:44.266Z,50.94
2023-06-29T21:37:14.854Z,50.86
2023-06-29T21:39:44.481Z,52.02
2023-06-29T21:42:13.423Z,53.11
2023-06-29T21:44:42.339Z,55.52
2023-06-29T21:47:11.419Z,56.97
2023-06-29T21:49:40.462Z,57.79
2023-06-29T21:52:10.946Z,57.82
2023-06-29T21:54:39.798Z,58.77
2023-06-29T21:57:09.143Z,59.38
2023-06-29T21:59:37.974Z,59.67
2023-06-29T22:02:07.723Z,59.68
2023-06-29T22:04:37.689Z,59.84
2023-06-29T22:07:16.832Z,60.46
2023-06-29T22:09:47.729Z,60.72
2023-06-29T22:12:16.616Z,61.59
2023-06-29T22:14:49.209Z,60.92
2023-06-29T22:17:18.367Z,61.44
2023-06-29T22:20:10.498Z,62.08
2023-06-29T22:22:39.419Z,62.82
2023-06-29T22:25:10.864Z,63.09
2023-06-29T22:27:40.033Z,63.17
2023-06-29T22:30:10.168Z,63.21
2023-06-29T22:32:39.769Z,63.44
2023-06-29T22:35:10.111Z,63.32
2023-06-29T22:37:39.857Z,63.61
2023-06-29T22:40:11.418Z,63.96
2023-06-29T22:42:40.380Z,64.23
2023-06-29T22:45:10.117Z,64.12
2023-06-29T22:47:39.081Z,64.50
2023-06-29T22:50:08.640Z,64.68
2023-06-29T22:52:37.941Z,64.76
2023-06-29T22:55:07.406Z,64.86
2023-06-29T22:57:37.802Z,65.10
2023-06-29T23:00:12.016Z,65.08
2023-06-29T23:02:45.467Z,64.65
2023-06-29T23:05:16.366Z,63.98
2023-06-29T23:07:45.954Z,64.09
2023-06-29T23:10:15.433Z,64.24
2023-06-29T23:12:46.975Z,63.91
2023-06-29T23:15:16.094Z,63.94
2023-06-29T23:17:45.694Z,64.40
2023-06-29T23:20:14.675Z,64.61
2023-06-29T23:22:45.354Z,64.60
2023-06-29T23:25:15.254Z,64.66
2023-06-29T23:27:45.565Z,64.79
2023-06-29T23:30:16.905Z,65.34
2023-06-29T23:32:51.280Z,65.42
2023-06-29T23:35:21.962Z,64.83
2023-06-29T23:37:51.472Z,64.84
2023-06-29T23:40:20.422Z,65.28
2023-06-29T23:42:52.269Z,65.40
2023-06-29T23:45:21.400Z,65.59
2023-06-29T23:47:50.362Z,65.92
2023-06-29T23:50:19.929Z,65.59
2023-06-29T23:52:49.505Z,66.06
2023-06-29T23:55:20.465Z,65.55
2023-06-29T23:57:51.317Z,65.92
